If you wish to contribute or participate in the discussions about articles you are invited to join SKYbrary as a registered user

 Actions

Kapalua Airport

From SKYbrary Wiki

PHJH
Airport
ICAO: PHJH
Summary
Name Kapalua Airport
Region North America
Territory Hawaii US.gif
Location Lahaina
Serving
Coordinates 20° 57' 46.00" N, 156° 40' 22.00" W
Runways
Designator Length Width Surface ROPS
2/20 914 m2,998.688 ft
30 m98.425 ft
ASP yes/yes


METAR
Observation PHJH 142145Z 04010KT 10SM FEW035 FEW050 31/21 A2995
Station Lahaina / West Maui
Date/Time 14 September 2019 21:45:00
Wind direction 40°
Wind speed 10 kts
Lowest cloud amount few clouds
Temperature 31°C
Dew point 21°C
Humidity 55%
QNH hPa
Weather condition n/a

Kapalua Airport

ICAO: PHJH IATA: JHM

Kapalua–West Maui Airport

Description

Kapalua Airport, also known as Kapalua–West Maui Airport, is a regional private use airport on the west side of the island of Maui in Hawaii. It is located 9 km4.86 nm
9,000 m
29,527.559 ft
northwest of Lahaina, in Maui County, Hawaii.

Climatology

Tropical Savanna climate (Köppen climate classification As) - monthly mean temperature above 18°C64.4 °F
291.15 K
524.07 °R
in every month of the year and a pronounced dry season.

Maps

Terrain

Loading map...

Airport Layout

Loading map...



Accidents & Serious Incidents at or in vicinity of PHJH

None on SKYbrary